sensor_id;sensor_type;location;lat;lon;timestamp;P1;durP1;ratioP1;P2;durP2;ratioP2
64795;SDS011;51229;51.980;6.722;2022-12-29T00:02:04;3.80;;;2.10;;
64795;SDS011;51229;51.980;6.722;2022-12-29T00:04:30;4.20;;;2.08;;
64795;SDS011;51229;51.980;6.722;2022-12-29T00:06:56;2.88;;;1.55;;
64795;SDS011;51229;51.980;6.722;2022-12-29T00:09:22;2.97;;;1.88;;
64795;SDS011;51229;51.980;6.722;2022-12-29T00:11:47;3.72;;;1.70;;
64795;SDS011;51229;51.980;6.722;2022-12-29T00:14:15;3.05;;;1.75;;
64795;SDS011;51229;51.980;6.722;2022-12-29T00:16:59;3.15;;;1.20;;
64795;SDS011;51229;51.980;6.722;2022-12-29T00:19:26;3.30;;;1.38;;
64795;SDS011;51229;51.980;6.722;2022-12-29T00:22:11;3.25;;;1.42;;
64795;SDS011;51229;51.980;6.722;2022-12-29T00:24:56;2.53;;;1.45;;
64795;SDS011;51229;51.980;6.722;2022-12-29T00:27:41;2.72;;;1.70;;
64795;SDS011;51229;51.980;6.722;2022-12-29T00:30:25;3.75;;;1.95;;
64795;SDS011;51229;51.980;6.722;2022-12-29T00:36:38;2.28;;;1.45;;
64795;SDS011;51229;51.980;6.722;2022-12-29T00:39:07;3.38;;;1.83;;
64795;SDS011;51229;51.980;6.722;2022-12-29T00:41:54;2.55;;;1.60;;
64795;SDS011;51229;51.980;6.722;2022-12-29T00:44:38;3.28;;;1.80;;
64795;SDS011;51229;51.980;6.722;2022-12-29T00:47:04;2.80;;;1.70;;
64795;SDS011;51229;51.980;6.722;2022-12-29T00:49:31;3.25;;;1.73;;
64795;SDS011;51229;51.980;6.722;2022-12-29T00:54:28;2.45;;;1.35;;
64795;SDS011;51229;51.980;6.722;2022-12-29T00:56:58;3.47;;;1.70;;
64795;SDS011;51229;51.980;6.722;2022-12-29T00:59:24;2.40;;;1.40;;
64795;SDS011;51229;51.980;6.722;2022-12-29T01:01:50;3.53;;;1.52;;
64795;SDS011;51229;51.980;6.722;2022-12-29T01:04:18;3.30;;;1.63;;
64795;SDS011;51229;51.980;6.722;2022-12-29T01:06:45;3.45;;;1.48;;
64795;SDS011;51229;51.980;6.722;2022-12-29T01:09:14;2.80;;;1.30;;
64795;SDS011;51229;51.980;6.722;2022-12-29T01:12:02;2.40;;;1.10;;
64795;SDS011;51229;51.980;6.722;2022-12-29T01:14:36;3.00;;;1.60;;
64795;SDS011;51229;51.980;6.722;2022-12-29T01:17:03;3.55;;;2.13;;
64795;SDS011;51229;51.980;6.722;2022-12-29T01:19:37;4.82;;;2.22;;
64795;SDS011;51229;51.980;6.722;2022-12-29T01:22:06;3.80;;;1.80;;
64795;SDS011;51229;51.980;6.722;2022-12-29T01:24:32;3.75;;;2.03;;
64795;SDS011;51229;51.980;6.722;2022-12-29T01:26:58;3.63;;;2.13;;
64795;SDS011;51229;51.980;6.722;2022-12-29T01:29:23;4.88;;;2.40;;
64795;SDS011;51229;51.980;6.722;2022-12-29T01:31:49;3.67;;;2.20;;
64795;SDS011;51229;51.980;6.722;2022-12-29T01:34:15;4.85;;;2.33;;
64795;SDS011;51229;51.980;6.722;2022-12-29T01:36:40;6.55;;;2.90;;
64795;SDS011;51229;51.980;6.722;2022-12-29T01:39:06;5.10;;;3.22;;
64795;SDS011;51229;51.980;6.722;2022-12-29T01:41:32;5.13;;;2.50;;
64795;SDS011;51229;51.980;6.722;2022-12-29T01:43:59;3.65;;;1.80;;
64795;SDS011;51229;51.980;6.722;2022-12-29T01:46:47;4.88;;;2.80;;
64795;SDS011;51229;51.980;6.722;2022-12-29T01:49:15;4.35;;;2.80;;
64795;SDS011;51229;51.980;6.722;2022-12-29T01:51:54;3.72;;;2.30;;
64795;SDS011;51229;51.980;6.722;2022-12-29T01:54:33;4.75;;;2.40;;
64795;SDS011;51229;51.980;6.722;2022-12-29T01:57:07;4.22;;;1.90;;
64795;SDS011;51229;51.980;6.722;2022-12-29T01:59:42;7.28;;;2.75;;
64795;SDS011;51229;51.980;6.722;2022-12-29T02:02:11;3.30;;;1.55;;
64795;SDS011;51229;51.980;6.722;2022-12-29T02:04:38;6.18;;;2.33;;
64795;SDS011;51229;51.980;6.722;2022-12-29T02:07:10;3.42;;;1.73;;
64795;SDS011;51229;51.980;6.722;2022-12-29T02:09:42;2.92;;;1.70;;
64795;SDS011;51229;51.980;6.722;2022-12-29T02:12:08;3.08;;;1.80;;
64795;SDS011;51229;51.980;6.722;2022-12-29T02:14:35;3.97;;;1.70;;
64795;SDS011;51229;51.980;6.722;2022-12-29T02:17:08;4.07;;;1.85;;
64795;SDS011;51229;51.980;6.722;2022-12-29T02:31:52;3.80;;;1.75;;
64795;SDS011;51229;51.980;6.722;2022-12-29T02:37:07;3.40;;;1.80;;
64795;SDS011;51229;51.980;6.722;2022-12-29T02:39:51;3.47;;;1.50;;
64795;SDS011;51229;51.980;6.722;2022-12-29T02:42:41;2.60;;;1.40;;
64795;SDS011;51229;51.980;6.722;2022-12-29T02:45:31;2.88;;;1.40;;
64795;SDS011;51229;51.980;6.722;2022-12-29T02:48:14;2.97;;;1.60;;
64795;SDS011;51229;51.980;6.722;2022-12-29T02:53:22;2.28;;;1.20;;
64795;SDS011;51229;51.980;6.722;2022-12-29T02:56:08;2.30;;;1.17;;
64795;SDS011;51229;51.980;6.722;2022-12-29T02:58:34;2.17;;;1.25;;
64795;SDS011;51229;51.980;6.722;2022-12-29T03:06:50;3.38;;;1.20;;
64795;SDS011;51229;51.980;6.722;2022-12-29T03:10:07;2.72;;;1.00;;
64795;SDS011;51229;51.980;6.722;2022-12-29T03:15:13;2.33;;;1.20;;
64795;SDS011;51229;51.980;6.722;2022-12-29T03:18:18;1.75;;;0.98;;
64795;SDS011;51229;51.980;6.722;2022-12-29T03:20:54;1.67;;;1.00;;
64795;SDS011;51229;51.980;6.722;2022-12-29T03:23:25;2.67;;;1.20;;
64795;SDS011;51229;51.980;6.722;2022-12-29T03:25:55;3.00;;;1.10;;
64795;SDS011;51229;51.980;6.722;2022-12-29T03:28:29;2.10;;;0.90;;
64795;SDS011;51229;51.980;6.722;2022-12-29T03:31:24;2.17;;;0.95;;
64795;SDS011;51229;51.980;6.722;2022-12-29T03:33:52;2.22;;;1.00;;
64795;SDS011;51229;51.980;6.722;2022-12-29T03:36:24;1.40;;;1.00;;
64795;SDS011;51229;51.980;6.722;2022-12-29T03:39:00;3.30;;;1.20;;
64795;SDS011;51229;51.980;6.722;2022-12-29T03:41:31;2.75;;;0.85;;
64795;SDS011;51229;51.980;6.722;2022-12-29T03:44:01;3.42;;;1.00;;
64795;SDS011;51229;51.980;6.722;2022-12-29T03:46:26;4.13;;;1.05;;
64795;SDS011;51229;51.980;6.722;2022-12-29T03:48:52;1.08;;;0.88;;
64795;SDS011;51229;51.980;6.722;2022-12-29T03:51:18;2.55;;;0.98;;
64795;SDS011;51229;51.980;6.722;2022-12-29T03:53:44;3.00;;;1.00;;
64795;SDS011;51229;51.980;6.722;2022-12-29T03:56:09;3.10;;;1.00;;
64795;SDS011;51229;51.980;6.722;2022-12-29T03:58:36;2.20;;;1.00;;
64795;SDS011;51229;51.980;6.722;2022-12-29T04:01:10;2.28;;;1.05;;
64795;SDS011;51229;51.980;6.722;2022-12-29T04:03:37;3.03;;;1.02;;
64795;SDS011;51229;51.980;6.722;2022-12-29T04:06:04;4.00;;;1.30;;
64795;SDS011;51229;51.980;6.722;2022-12-29T04:08:37;1.92;;;0.75;;
64795;SDS011;51229;51.980;6.722;2022-12-29T04:11:04;2.63;;;1.00;;
64795;SDS011;51229;51.980;6.722;2022-12-29T04:13:31;2.38;;;0.88;;
64795;SDS011;51229;51.980;6.722;2022-12-29T04:15:56;3.33;;;1.00;;
64795;SDS011;51229;51.980;6.722;2022-12-29T04:18:22;2.70;;;0.77;;
64795;SDS011;51229;51.980;6.722;2022-12-29T04:20:48;1.48;;;0.85;;
64795;SDS011;51229;51.980;6.722;2022-12-29T04:23:26;2.15;;;1.00;;
64795;SDS011;51229;51.980;6.722;2022-12-29T04:25:53;2.25;;;1.02;;
64795;SDS011;51229;51.980;6.722;2022-12-29T04:28:18;3.30;;;1.23;;
64795;SDS011;51229;51.980;6.722;2022-12-29T04:30:56;1.92;;;1.00;;
64795;SDS011;51229;51.980;6.722;2022-12-29T04:33:25;2.92;;;1.00;;
64795;SDS011;51229;51.980;6.722;2022-12-29T04:35:52;1.40;;;0.80;;
64795;SDS011;51229;51.980;6.722;2022-12-29T04:38:19;3.80;;;1.38;;
64795;SDS011;51229;51.980;6.722;2022-12-29T04:40:48;2.08;;;0.90;;
64795;SDS011;51229;51.980;6.722;2022-12-29T04:43:16;1.67;;;1.00;;
64795;SDS011;51229;51.980;6.722;2022-12-29T04:46:04;2.33;;;0.90;;
64795;SDS011;51229;51.980;6.722;2022-12-29T04:48:56;2.55;;;0.88;;
64795;SDS011;51229;51.980;6.722;2022-12-29T04:51:38;1.58;;;0.60;;
64795;SDS011;51229;51.980;6.722;2022-12-29T04:54:06;3.80;;;0.80;;
64795;SDS011;51229;51.980;6.722;2022-12-29T04:56:34;1.35;;;0.75;;
64795;SDS011;51229;51.980;6.722;2022-12-29T04:59:00;2.35;;;0.68;;
64795;SDS011;51229;51.980;6.722;2022-12-29T05:01:26;4.43;;;0.90;;
64795;SDS011;51229;51.980;6.722;2022-12-29T05:03:52;1.05;;;0.77;;
64795;SDS011;51229;51.980;6.722;2022-12-29T05:06:18;2.28;;;0.90;;
64795;SDS011;51229;51.980;6.722;2022-12-29T05:08:44;1.15;;;0.80;;
64795;SDS011;51229;51.980;6.722;2022-12-29T05:11:10;3.20;;;1.13;;
64795;SDS011;51229;51.980;6.722;2022-12-29T05:13:36;3.80;;;1.05;;
64795;SDS011;51229;51.980;6.722;2022-12-29T05:16:02;1.92;;;0.85;;
64795;SDS011;51229;51.980;6.722;2022-12-29T05:18:28;2.35;;;0.90;;
64795;SDS011;51229;51.980;6.722;2022-12-29T05:20:54;1.98;;;0.70;;
64795;SDS011;51229;51.980;6.722;2022-12-29T05:23:22;1.50;;;0.47;;
64795;SDS011;51229;51.980;6.722;2022-12-29T05:25:55;0.63;;;0.47;;
64795;SDS011;51229;51.980;6.722;2022-12-29T05:28:47;1.90;;;0.73;;
64795;SDS011;51229;51.980;6.722;2022-12-29T05:31:17;2.15;;;0.70;;
64795;SDS011;51229;51.980;6.722;2022-12-29T05:33:42;4.03;;;0.85;;
64795;SDS011;51229;51.980;6.722;2022-12-29T05:36:08;2.83;;;0.63;;
64795;SDS011;51229;51.980;6.722;2022-12-29T05:38:43;2.67;;;0.90;;
64795;SDS011;51229;51.980;6.722;2022-12-29T05:41:09;2.35;;;0.70;;
64795;SDS011;51229;51.980;6.722;2022-12-29T05:43:53;3.83;;;0.75;;
64795;SDS011;51229;51.980;6.722;2022-12-29T05:46:32;2.08;;;0.65;;
64795;SDS011;51229;51.980;6.722;2022-12-29T05:49:15;3.70;;;0.80;;
64795;SDS011;51229;51.980;6.722;2022-12-29T05:51:54;2.55;;;0.63;;
64795;SDS011;51229;51.980;6.722;2022-12-29T05:54:20;3.28;;;0.80;;
64795;SDS011;51229;51.980;6.722;2022-12-29T05:56:48;2.70;;;0.90;;
64795;SDS011;51229;51.980;6.722;2022-12-29T05:59:14;3.50;;;0.60;;
64795;SDS011;51229;51.980;6.722;2022-12-29T06:01:41;3.45;;;0.90;;
64795;SDS011;51229;51.980;6.722;2022-12-29T06:04:06;1.98;;;0.63;;
64795;SDS011;51229;51.980;6.722;2022-12-29T06:06:32;3.05;;;1.00;;
64795;SDS011;51229;51.980;6.722;2022-12-29T06:08:58;2.75;;;0.77;;
64795;SDS011;51229;51.980;6.722;2022-12-29T06:11:26;3.40;;;0.80;;
64795;SDS011;51229;51.980;6.722;2022-12-29T06:13:55;4.90;;;1.30;;
64795;SDS011;51229;51.980;6.722;2022-12-29T06:16:22;3.38;;;0.85;;
64795;SDS011;51229;51.980;6.722;2022-12-29T06:18:51;2.63;;;0.93;;
64795;SDS011;51229;51.980;6.722;2022-12-29T06:21:17;3.38;;;0.90;;
64795;SDS011;51229;51.980;6.722;2022-12-29T06:23:43;3.58;;;0.98;;
64795;SDS011;51229;51.980;6.722;2022-12-29T06:26:08;5.43;;;1.40;;
64795;SDS011;51229;51.980;6.722;2022-12-29T06:28:34;3.60;;;1.10;;
64795;SDS011;51229;51.980;6.722;2022-12-29T06:31:00;2.50;;;0.70;;
64795;SDS011;51229;51.980;6.722;2022-12-29T06:33:28;3.45;;;0.90;;
64795;SDS011;51229;51.980;6.722;2022-12-29T06:35:54;3.50;;;0.80;;
64795;SDS011;51229;51.980;6.722;2022-12-29T06:38:20;4.32;;;0.88;;
64795;SDS011;51229;51.980;6.722;2022-12-29T06:40:45;3.92;;;0.90;;
64795;SDS011;51229;51.980;6.722;2022-12-29T06:43:20;4.72;;;0.93;;
64795;SDS011;51229;51.980;6.722;2022-12-29T06:46:08;5.95;;;1.30;;
64795;SDS011;51229;51.980;6.722;2022-12-29T06:48:34;4.00;;;0.88;;
64795;SDS011;51229;51.980;6.722;2022-12-29T06:51:00;6.22;;;1.10;;
64795;SDS011;51229;51.980;6.722;2022-12-29T06:53:26;5.07;;;1.20;;
64795;SDS011;51229;51.980;6.722;2022-12-29T06:55:51;4.72;;;1.15;;
64795;SDS011;51229;51.980;6.722;2022-12-29T06:58:17;5.03;;;0.90;;
64795;SDS011;51229;51.980;6.722;2022-12-29T07:00:43;3.17;;;0.88;;
64795;SDS011;51229;51.980;6.722;2022-12-29T07:03:09;3.72;;;1.00;;
64795;SDS011;51229;51.980;6.722;2022-12-29T07:05:34;7.05;;;1.42;;
64795;SDS011;51229;51.980;6.722;2022-12-29T07:08:00;5.32;;;1.20;;
64795;SDS011;51229;51.980;6.722;2022-12-29T07:10:26;1.90;;;0.90;;
64795;SDS011;51229;51.980;6.722;2022-12-29T07:12:51;6.95;;;1.15;;
64795;SDS011;51229;51.980;6.722;2022-12-29T07:15:17;4.20;;;1.15;;
64795;SDS011;51229;51.980;6.722;2022-12-29T07:17:43;5.68;;;1.05;;
64795;SDS011;51229;51.980;6.722;2022-12-29T07:20:09;5.53;;;1.00;;
64795;SDS011;51229;51.980;6.722;2022-12-29T07:22:35;3.53;;;1.20;;
64795;SDS011;51229;51.980;6.722;2022-12-29T07:25:01;8.25;;;1.33;;
64795;SDS011;51229;51.980;6.722;2022-12-29T07:27:28;4.72;;;1.10;;
64795;SDS011;51229;51.980;6.722;2022-12-29T07:29:54;1.60;;;0.90;;
64795;SDS011;51229;51.980;6.722;2022-12-29T07:32:19;2.63;;;0.88;;
64795;SDS011;51229;51.980;6.722;2022-12-29T07:34:45;3.78;;;1.35;;
64795;SDS011;51229;51.980;6.722;2022-12-29T07:37:12;3.15;;;0.95;;
64795;SDS011;51229;51.980;6.722;2022-12-29T07:39:40;4.15;;;0.80;;
64795;SDS011;51229;51.980;6.722;2022-12-29T07:42:06;3.78;;;1.27;;
64795;SDS011;51229;51.980;6.722;2022-12-29T07:44:42;5.38;;;1.25;;
64795;SDS011;51229;51.980;6.722;2022-12-29T07:47:15;7.35;;;1.20;;
64795;SDS011;51229;51.980;6.722;2022-12-29T07:49:40;2.78;;;1.10;;
64795;SDS011;51229;51.980;6.722;2022-12-29T07:52:06;2.92;;;0.90;;
64795;SDS011;51229;51.980;6.722;2022-12-29T07:54:32;6.63;;;1.30;;
64795;SDS011;51229;51.980;6.722;2022-12-29T07:56:58;5.85;;;1.30;;
64795;SDS011;51229;51.980;6.722;2022-12-29T07:59:25;4.40;;;0.98;;
64795;SDS011;51229;51.980;6.722;2022-12-29T08:01:51;3.05;;;1.13;;
64795;SDS011;51229;51.980;6.722;2022-12-29T08:04:17;5.80;;;1.42;;
64795;SDS011;51229;51.980;6.722;2022-12-29T08:06:43;4.40;;;1.23;;
64795;SDS011;51229;51.980;6.722;2022-12-29T08:09:10;4.38;;;1.25;;
64795;SDS011;51229;51.980;6.722;2022-12-29T08:11:36;3.15;;;0.93;;
64795;SDS011;51229;51.980;6.722;2022-12-29T08:14:02;5.68;;;1.10;;
64795;SDS011;51229;51.980;6.722;2022-12-29T08:16:28;2.85;;;0.90;;
64795;SDS011;51229;51.980;6.722;2022-12-29T08:18:53;3.70;;;1.02;;
64795;SDS011;51229;51.980;6.722;2022-12-29T08:21:19;3.88;;;1.00;;
64795;SDS011;51229;51.980;6.722;2022-12-29T08:23:44;4.68;;;0.93;;
64795;SDS011;51229;51.980;6.722;2022-12-29T08:26:10;6.80;;;1.85;;
64795;SDS011;51229;51.980;6.722;2022-12-29T08:28:36;5.95;;;0.95;;
64795;SDS011;51229;51.980;6.722;2022-12-29T08:31:02;3.38;;;1.10;;
64795;SDS011;51229;51.980;6.722;2022-12-29T08:33:28;5.35;;;1.20;;
64795;SDS011;51229;51.980;6.722;2022-12-29T08:36:04;5.10;;;1.15;;
64795;SDS011;51229;51.980;6.722;2022-12-29T08:38:32;4.75;;;1.20;;
64795;SDS011;51229;51.980;6.722;2022-12-29T08:40:58;4.50;;;1.13;;
64795;SDS011;51229;51.980;6.722;2022-12-29T08:43:26;3.78;;;1.13;;
64795;SDS011;51229;51.980;6.722;2022-12-29T08:45:52;5.00;;;1.30;;
64795;SDS011;51229;51.980;6.722;2022-12-29T08:48:18;5.00;;;1.10;;
64795;SDS011;51229;51.980;6.722;2022-12-29T08:50:47;3.75;;;0.90;;
64795;SDS011;51229;51.980;6.722;2022-12-29T08:53:14;7.28;;;1.33;;
64795;SDS011;51229;51.980;6.722;2022-12-29T08:55:40;3.13;;;1.20;;
64795;SDS011;51229;51.980;6.722;2022-12-29T08:58:06;5.13;;;1.20;;
64795;SDS011;51229;51.980;6.722;2022-12-29T09:00:34;5.20;;;1.17;;
64795;SDS011;51229;51.980;6.722;2022-12-29T09:03:00;3.88;;;1.33;;
64795;SDS011;51229;51.980;6.722;2022-12-29T09:05:26;2.88;;;0.90;;
64795;SDS011;51229;51.980;6.722;2022-12-29T09:07:52;5.78;;;1.70;;
64795;SDS011;51229;51.980;6.722;2022-12-29T09:10:17;5.30;;;0.98;;
64795;SDS011;51229;51.980;6.722;2022-12-29T09:12:43;6.13;;;1.30;;
64795;SDS011;51229;51.980;6.722;2022-12-29T09:15:09;6.90;;;1.33;;
64795;SDS011;51229;51.980;6.722;2022-12-29T09:17:35;9.52;;;1.52;;
64795;SDS011;51229;51.980;6.722;2022-12-29T09:20:11;7.07;;;1.20;;
64795;SDS011;51229;51.980;6.722;2022-12-29T09:22:38;10.23;;;1.20;;
64795;SDS011;51229;51.980;6.722;2022-12-29T09:25:04;9.43;;;1.30;;
64795;SDS011;51229;51.980;6.722;2022-12-29T09:27:31;7.25;;;1.45;;
64795;SDS011;51229;51.980;6.722;2022-12-29T09:29:56;3.63;;;1.58;;
64795;SDS011;51229;51.980;6.722;2022-12-29T09:32:22;6.22;;;1.55;;
64795;SDS011;51229;51.980;6.722;2022-12-29T09:34:48;7.88;;;1.15;;
64795;SDS011;51229;51.980;6.722;2022-12-29T09:37:13;7.13;;;1.50;;
64795;SDS011;51229;51.980;6.722;2022-12-29T09:39:39;7.47;;;1.42;;
64795;SDS011;51229;51.980;6.722;2022-12-29T09:45:02;4.80;;;1.20;;
64795;SDS011;51229;51.980;6.722;2022-12-29T09:47:52;8.77;;;1.33;;
64795;SDS011;51229;51.980;6.722;2022-12-29T09:50:21;8.18;;;2.72;;
64795;SDS011;51229;51.980;6.722;2022-12-29T09:55:59;5.03;;;1.52;;
64795;SDS011;51229;51.980;6.722;2022-12-29T10:01:02;4.20;;;1.42;;
64795;SDS011;51229;51.980;6.722;2022-12-29T10:03:53;5.05;;;1.42;;
64795;SDS011;51229;51.980;6.722;2022-12-29T10:06:22;4.68;;;1.27;;
64795;SDS011;51229;51.980;6.722;2022-12-29T10:14:47;3.75;;;1.23;;
64795;SDS011;51229;51.980;6.722;2022-12-29T10:22:51;4.30;;;0.77;;
64795;SDS011;51229;51.980;6.722;2022-12-29T10:25:31;4.68;;;1.30;;
64795;SDS011;51229;51.980;6.722;2022-12-29T10:28:03;4.80;;;1.23;;
64795;SDS011;51229;51.980;6.722;2022-12-29T10:33:04;5.28;;;1.25;;
64795;SDS011;51229;51.980;6.722;2022-12-29T10:35:37;4.45;;;1.13;;
64795;SDS011;51229;51.980;6.722;2022-12-29T10:43:31;7.30;;;1.25;;
64795;SDS011;51229;51.980;6.722;2022-12-29T10:46:02;7.40;;;1.45;;
64795;SDS011;51229;51.980;6.722;2022-12-29T10:48:34;5.72;;;1.50;;
64795;SDS011;51229;51.980;6.722;2022-12-29T10:51:07;6.95;;;1.75;;
64795;SDS011;51229;51.980;6.722;2022-12-29T10:56:17;3.78;;;1.02;;
64795;SDS011;51229;51.980;6.722;2022-12-29T10:59:00;5.35;;;1.20;;
64795;SDS011;51229;51.980;6.722;2022-12-29T11:01:41;6.57;;;1.30;;
64795;SDS011;51229;51.980;6.722;2022-12-29T11:07:03;5.38;;;1.40;;
64795;SDS011;51229;51.980;6.722;2022-12-29T11:09:32;6.38;;;1.30;;
64795;SDS011;51229;51.980;6.722;2022-12-29T11:12:05;4.78;;;1.65;;
64795;SDS011;51229;51.980;6.722;2022-12-29T11:14:42;7.40;;;1.60;;
64795;SDS011;51229;51.980;6.722;2022-12-29T11:17:11;6.07;;;1.52;;
64795;SDS011;51229;51.980;6.722;2022-12-29T11:19:40;6.75;;;1.10;;
64795;SDS011;51229;51.980;6.722;2022-12-29T11:22:13;6.30;;;1.08;;
64795;SDS011;51229;51.980;6.722;2022-12-29T11:24:46;4.63;;;1.05;;
64795;SDS011;51229;51.980;6.722;2022-12-29T11:27:20;5.60;;;1.25;;
64795;SDS011;51229;51.980;6.722;2022-12-29T11:29:48;5.10;;;1.00;;
64795;SDS011;51229;51.980;6.722;2022-12-29T11:34:49;6.38;;;1.55;;
64795;SDS011;51229;51.980;6.722;2022-12-29T11:37:19;3.53;;;1.23;;
64795;SDS011;51229;51.980;6.722;2022-12-29T11:40:06;5.55;;;0.90;;
64795;SDS011;51229;51.980;6.722;2022-12-29T11:42:47;5.07;;;1.33;;
64795;SDS011;51229;51.980;6.722;2022-12-29T11:48:09;5.15;;;1.15;;
64795;SDS011;51229;51.980;6.722;2022-12-29T11:50:42;6.38;;;1.60;;
64795;SDS011;51229;51.980;6.722;2022-12-29T11:53:23;5.05;;;0.82;;
64795;SDS011;51229;51.980;6.722;2022-12-29T11:56:52;6.53;;;1.70;;
64795;SDS011;51229;51.980;6.722;2022-12-29T11:58:57;7.72;;;1.10;;
64795;SDS011;51229;51.980;6.722;2022-12-29T12:01:26;2.50;;;1.00;;
64795;SDS011;51229;51.980;6.722;2022-12-29T12:04:11;7.90;;;1.48;;
64795;SDS011;51229;51.980;6.722;2022-12-29T12:06:43;6.85;;;2.33;;
64795;SDS011;51229;51.980;6.722;2022-12-29T12:09:17;4.95;;;1.70;;
64795;SDS011;51229;51.980;6.722;2022-12-29T12:11:51;6.93;;;1.60;;
64795;SDS011;51229;51.980;6.722;2022-12-29T12:17:18;6.25;;;1.80;;
64795;SDS011;51229;51.980;6.722;2022-12-29T12:19:57;5.22;;;1.20;;
64795;SDS011;51229;51.980;6.722;2022-12-29T12:22:29;7.35;;;1.95;;
64795;SDS011;51229;51.980;6.722;2022-12-29T12:25:02;5.70;;;1.27;;
64795;SDS011;51229;51.980;6.722;2022-12-29T12:30:20;8.15;;;1.67;;
64795;SDS011;51229;51.980;6.722;2022-12-29T12:32:52;5.20;;;1.55;;
64795;SDS011;51229;51.980;6.722;2022-12-29T12:35:26;9.40;;;1.80;;
64795;SDS011;51229;51.980;6.722;2022-12-29T12:46:37;7.03;;;1.80;;
64795;SDS011;51229;51.980;6.722;2022-12-29T13:00:14;4.88;;;1.95;;
64795;SDS011;51229;51.980;6.722;2022-12-29T13:13:47;6.07;;;1.52;;
64795;SDS011;51229;51.980;6.722;2022-12-29T13:16:21;4.40;;;1.35;;
64795;SDS011;51229;51.980;6.722;2022-12-29T13:18:52;4.00;;;1.40;;
64795;SDS011;51229;51.980;6.722;2022-12-29T13:21:27;4.07;;;1.40;;
64795;SDS011;51229;51.980;6.722;2022-12-29T13:24:13;6.93;;;1.63;;
64795;SDS011;51229;51.980;6.722;2022-12-29T13:26:48;12.60;;;2.10;;
64795;SDS011;51229;51.980;6.722;2022-12-29T13:29:20;5.35;;;1.63;;
64795;SDS011;51229;51.980;6.722;2022-12-29T13:34:49;4.82;;;1.60;;
64795;SDS011;51229;51.980;6.722;2022-12-29T13:37:17;8.40;;;2.13;;
64795;SDS011;51229;51.980;6.722;2022-12-29T13:39:46;4.70;;;1.63;;
64795;SDS011;51229;51.980;6.722;2022-12-29T13:42:16;5.10;;;1.45;;
64795;SDS011;51229;51.980;6.722;2022-12-29T13:44:46;8.70;;;1.90;;
64795;SDS011;51229;51.980;6.722;2022-12-29T13:47:21;9.48;;;2.70;;
64795;SDS011;51229;51.980;6.722;2022-12-29T13:50:11;7.82;;;1.40;;
64795;SDS011;51229;51.980;6.722;2022-12-29T13:58:02;10.52;;;1.83;;
64795;SDS011;51229;51.980;6.722;2022-12-29T14:06:25;9.30;;;2.30;;
64795;SDS011;51229;51.980;6.722;2022-12-29T14:09:00;7.20;;;1.63;;
64795;SDS011;51229;51.980;6.722;2022-12-29T14:16:49;6.82;;;1.83;;
64795;SDS011;51229;51.980;6.722;2022-12-29T14:19:20;7.93;;;1.90;;
64795;SDS011;51229;51.980;6.722;2022-12-29T14:22:01;6.97;;;1.80;;
64795;SDS011;51229;51.980;6.722;2022-12-29T14:29:47;6.32;;;1.60;;
64795;SDS011;51229;51.980;6.722;2022-12-29T14:34:52;3.55;;;1.65;;
64795;SDS011;51229;51.980;6.722;2022-12-29T14:37:27;7.53;;;2.05;;
64795;SDS011;51229;51.980;6.722;2022-12-29T14:40:06;8.35;;;2.30;;
64795;SDS011;51229;51.980;6.722;2022-12-29T14:43:06;7.10;;;2.17;;
64795;SDS011;51229;51.980;6.722;2022-12-29T14:45:40;4.75;;;1.63;;
64795;SDS011;51229;51.980;6.722;2022-12-29T14:50:55;4.88;;;1.52;;
64795;SDS011;51229;51.980;6.722;2022-12-29T14:56:08;5.57;;;1.58;;
64795;SDS011;51229;51.980;6.722;2022-12-29T14:58:54;4.60;;;1.50;;
64795;SDS011;51229;51.980;6.722;2022-12-29T15:03:58;4.45;;;1.48;;
64795;SDS011;51229;51.980;6.722;2022-12-29T15:06:30;5.47;;;1.40;;
64795;SDS011;51229;51.980;6.722;2022-12-29T15:09:04;4.85;;;1.25;;
64795;SDS011;51229;51.980;6.722;2022-12-29T15:14:01;7.00;;;1.50;;
64795;SDS011;51229;51.980;6.722;2022-12-29T15:16:32;4.20;;;1.23;;
64795;SDS011;51229;51.980;6.722;2022-12-29T15:19:00;5.15;;;1.48;;
64795;SDS011;51229;51.980;6.722;2022-12-29T15:21:28;6.93;;;1.52;;
64795;SDS011;51229;51.980;6.722;2022-12-29T15:23:59;8.07;;;1.47;;
64795;SDS011;51229;51.980;6.722;2022-12-29T15:26:36;5.07;;;1.80;;
64795;SDS011;51229;51.980;6.722;2022-12-29T15:29:03;5.45;;;1.85;;
64795;SDS011;51229;51.980;6.722;2022-12-29T15:31:29;8.02;;;2.05;;
64795;SDS011;51229;51.980;6.722;2022-12-29T15:34:02;3.97;;;1.50;;
64795;SDS011;51229;51.980;6.722;2022-12-29T15:36:39;6.47;;;1.60;;
64795;SDS011;51229;51.980;6.722;2022-12-29T15:39:17;6.80;;;1.80;;
64795;SDS011;51229;51.980;6.722;2022-12-29T15:42:02;5.55;;;1.48;;
64795;SDS011;51229;51.980;6.722;2022-12-29T15:44:45;4.90;;;1.40;;
64795;SDS011;51229;51.980;6.722;2022-12-29T15:47:18;9.73;;;2.38;;
64795;SDS011;51229;51.980;6.722;2022-12-29T15:49:53;4.22;;;1.38;;
64795;SDS011;51229;51.980;6.722;2022-12-29T15:52:28;3.63;;;1.27;;
64795;SDS011;51229;51.980;6.722;2022-12-29T15:54:56;9.25;;;1.90;;
64795;SDS011;51229;51.980;6.722;2022-12-29T15:57:25;7.25;;;1.70;;
64795;SDS011;51229;51.980;6.722;2022-12-29T16:00:01;5.10;;;1.65;;
64795;SDS011;51229;51.980;6.722;2022-12-29T16:02:37;7.53;;;1.98;;
64795;SDS011;51229;51.980;6.722;2022-12-29T16:05:09;9.80;;;2.15;;
64795;SDS011;51229;51.980;6.722;2022-12-29T16:07:39;4.70;;;1.63;;
64795;SDS011;51229;51.980;6.722;2022-12-29T16:12:54;6.70;;;1.95;;
64795;SDS011;51229;51.980;6.722;2022-12-29T16:15:20;7.75;;;1.80;;
64795;SDS011;51229;51.980;6.722;2022-12-29T16:17:47;6.43;;;1.58;;
64795;SDS011;51229;51.980;6.722;2022-12-29T16:20:17;6.70;;;2.10;;
64795;SDS011;51229;51.980;6.722;2022-12-29T16:22:56;8.20;;;2.25;;
64795;SDS011;51229;51.980;6.722;2022-12-29T16:25:25;6.78;;;2.28;;
64795;SDS011;51229;51.980;6.722;2022-12-29T16:27:54;7.80;;;2.40;;
64795;SDS011;51229;51.980;6.722;2022-12-29T16:30:28;8.55;;;2.45;;
64795;SDS011;51229;51.980;6.722;2022-12-29T16:32:56;7.90;;;2.63;;
64795;SDS011;51229;51.980;6.722;2022-12-29T16:35:24;8.00;;;2.60;;
64795;SDS011;51229;51.980;6.722;2022-12-29T16:40:50;8.55;;;2.05;;
64795;SDS011;51229;51.980;6.722;2022-12-29T16:43:26;8.68;;;2.50;;
64795;SDS011;51229;51.980;6.722;2022-12-29T16:48:33;6.65;;;1.90;;
64795;SDS011;51229;51.980;6.722;2022-12-29T16:51:17;6.50;;;1.88;;
64795;SDS011;51229;51.980;6.722;2022-12-29T16:53:58;4.85;;;1.45;;
64795;SDS011;51229;51.980;6.722;2022-12-29T16:56:28;4.53;;;1.33;;
64795;SDS011;51229;51.980;6.722;2022-12-29T17:01:53;4.90;;;1.50;;
64795;SDS011;51229;51.980;6.722;2022-12-29T17:04:20;3.97;;;1.45;;
64795;SDS011;51229;51.980;6.722;2022-12-29T17:06:46;4.82;;;1.58;;
64795;SDS011;51229;51.980;6.722;2022-12-29T17:09:22;6.70;;;1.50;;
64795;SDS011;51229;51.980;6.722;2022-12-29T17:11:56;5.60;;;1.30;;
64795;SDS011;51229;51.980;6.722;2022-12-29T17:20:04;8.77;;;2.28;;
64795;SDS011;51229;51.980;6.722;2022-12-29T17:22:31;4.35;;;1.65;;
64795;SDS011;51229;51.980;6.722;2022-12-29T17:24:58;5.78;;;1.70;;
64795;SDS011;51229;51.980;6.722;2022-12-29T17:27:30;3.88;;;1.58;;
64795;SDS011;51229;51.980;6.722;2022-12-29T17:29:57;7.60;;;1.90;;
64795;SDS011;51229;51.980;6.722;2022-12-29T17:32:35;5.40;;;1.52;;
64795;SDS011;51229;51.980;6.722;2022-12-29T17:35:01;5.07;;;1.52;;
64795;SDS011;51229;51.980;6.722;2022-12-29T17:37:32;5.13;;;2.30;;
64795;SDS011;51229;51.980;6.722;2022-12-29T17:39:59;6.15;;;3.00;;
64795;SDS011;51229;51.980;6.722;2022-12-29T17:42:26;7.93;;;2.75;;
64795;SDS011;51229;51.980;6.722;2022-12-29T17:44:52;4.75;;;1.80;;
64795;SDS011;51229;51.980;6.722;2022-12-29T17:47:17;5.43;;;1.40;;
64795;SDS011;51229;51.980;6.722;2022-12-29T17:49:43;4.07;;;1.50;;
64795;SDS011;51229;51.980;6.722;2022-12-29T17:52:13;4.15;;;1.70;;
64795;SDS011;51229;51.980;6.722;2022-12-29T17:54:45;4.43;;;1.48;;